Time;durP1;ratioP1;P1;durP2;ratioP2;P2;SDS_P1;SDS_P2;PMS_P1;PMS_P2;Temp;Humidity;BMP_temperature;BMP_pressure;BME280_temperature;BME280_humidity;BME280_pressure;Samples;Min_cycle;Max_cycle;Signal;HPM_P1;HPM_P2
2021/12/04 00:00:00;;;;;;;8.07;5.30;;;;;;;2.96;100.00;100016.16;5049010;28;20025;-85
2021/12/04 00:02:27;;;;;;;8.27;5.75;;;;;;;2.96;100.00;100003.09;5048812;28;20503;-85
2021/12/04 00:04:54;;;;;;;9.55;6.05;;;;;;;2.94;100.00;99996.13;5032694;28;20033;-85
2021/12/04 00:07:22;;;;;;;6.70;5.25;;;;;;;2.98;100.00;100003.94;5065529;28;20045;-85
2021/12/04 00:09:50;;;;;;;9.40;5.70;;;;;;;3.00;100.00;100001.34;5048874;28;20052;-86
2021/12/04 00:12:18;;;;;;;6.82;5.47;;;;;;;2.99;100.00;99994.34;5045379;28;20072;-85
2021/12/04 00:14:45;;;;;;;5.88;5.07;;;;;;;2.99;100.00;99989.13;5028994;28;20404;-85
2021/12/04 00:17:10;;;;;;;7.65;5.38;;;;;;;3.01;100.00;99987.38;5029140;28;20029;-85
2021/12/04 00:19:37;;;;;;;8.27;5.40;;;;;;;2.98;100.00;99980.41;5029057;28;20067;-85
2021/12/04 00:22:03;;;;;;;9.73;5.80;;;;;;;3.03;100.00;99975.16;5028934;28;20059;-85
2021/12/04 00:24:29;;;;;;;10.85;6.30;;;;;;;3.00;100.00;99976.06;5012469;28;20044;-85
2021/12/04 00:26:55;;;;;;;7.72;5.25;;;;;;;3.00;100.00;99975.19;5028899;28;20402;-85
2021/12/04 00:29:22;;;;;;;8.63;5.80;;;;;;;3.07;100.00;99976.03;5029125;28;20086;-85
2021/12/04 00:31:54;;;;;;;7.60;5.28;;;;;;;3.00;100.00;99967.34;5029163;28;20054;-85
2021/12/04 00:34:22;;;;;;;8.43;5.03;;;;;;;3.06;100.00;99971.66;5013362;28;20046;-86
2021/12/04 00:37:04;;;;;;;8.50;5.78;;;;;;;3.00;100.00;99967.34;5012566;28;20121;-86
2021/12/04 00:50:25;;;;;;;6.50;5.70;;;;;;;3.04;100.00;99960.34;5034868;28;20227;-86
2021/12/04 00:52:51;;;;;;;10.00;6.63;;;;;;;3.01;100.00;99954.25;5032367;28;20173;-86
2021/12/04 00:55:16;;;;;;;8.25;6.20;;;;;;;3.00;100.00;99946.41;5032270;28;20057;-86
2021/12/04 00:57:42;;;;;;;10.07;6.50;;;;;;;3.03;100.00;99950.75;5015948;28;20026;-86
2021/12/04 01:00:09;;;;;;;10.43;5.72;;;;;;;3.03;100.00;99959.47;5015683;28;20335;-86
2021/12/04 01:02:34;;;;;;;10.90;5.72;;;;;;;3.00;100.00;99954.25;5032320;28;20029;-86
2021/12/04 01:05:00;;;;;;;12.82;6.40;;;;;;;3.01;100.00;99962.09;5048463;28;20080;-86
2021/12/04 01:07:25;;;;;;;8.27;6.75;;;;;;;2.99;100.00;99958.63;5032259;28;20445;-85
2021/12/04 01:09:52;;;;;;;8.20;6.15;;;;;;;3.00;100.00;99954.25;5032244;28;20124;-86
2021/12/04 01:12:17;;;;;;;8.95;6.00;;;;;;;3.00;100.00;99964.72;5047676;28;20052;-86
2021/12/04 01:14:43;;;;;;;12.38;6.20;;;;;;;2.99;100.00;99952.50;5053081;28;20041;-85
2021/12/04 01:17:09;;;;;;;9.73;6.43;;;;;;;3.01;100.00;99956.84;5035035;28;20445;-86
2021/12/04 01:19:36;;;;;;;7.95;6.18;;;;;;;3.00;100.00;99954.25;5035363;28;20135;-86
2021/12/04 01:22:03;;;;;;;8.35;6.30;;;;;;;3.00;100.00;99962.97;5051632;28;20065;-86
2021/12/04 01:24:29;;;;;;;10.02;6.45;;;;;;;3.00;100.00;99968.22;5053006;28;20169;-85
2021/12/04 01:26:55;;;;;;;10.85;6.82;;;;;;;3.00;100.00;99965.59;5034580;28;20144;-86
2021/12/04 01:29:20;;;;;;;9.55;6.68;;;;;;;3.02;100.00;99960.38;5052982;28;20151;-86
2021/12/04 01:31:47;;;;;;;7.68;5.90;;;;;;;3.02;100.00;99947.28;5053163;28;20029;-85
2021/12/04 01:34:14;;;;;;;8.15;6.20;;;;;;;3.04;100.00;99953.34;5018223;28;20136;-84
2021/12/04 01:36:39;;;;;;;9.60;6.88;;;;;;;3.06;100.00;99945.50;5034866;28;20028;-86
2021/12/04 01:39:05;;;;;;;8.77;5.65;;;;;;;3.07;100.00;99947.25;5051170;28;20029;-86
2021/12/04 01:41:35;;;;;;;8.85;5.95;;;;;;;3.06;100.00;99946.38;5051426;28;20090;-85
2021/12/04 01:44:03;;;;;;;8.63;6.70;;;;;;;3.05;100.00;99944.66;5052591;28;20468;-86
2021/12/04 01:46:29;;;;;;;9.35;6.07;;;;;;;3.09;100.00;99948.09;5052496;28;20063;-84
2021/12/04 01:48:55;;;;;;;10.10;7.35;;;;;;;3.09;100.00;99953.34;5052620;28;20389;-86
2021/12/04 01:51:21;;;;;;;13.95;6.88;;;;;;;3.09;100.00;99945.47;5050517;28;20048;-85
2021/12/04 01:53:46;;;;;;;9.75;6.55;;;;;;;3.09;100.00;99945.47;5034366;28;20052;-86
2021/12/04 01:56:12;;;;;;;8.98;7.00;;;;;;;3.08;100.00;99938.53;5052356;28;20040;-85
2021/12/04 01:58:38;;;;;;;8.27;6.53;;;;;;;3.07;100.00;99942.03;5051016;28;20033;-85
2021/12/04 02:01:04;;;;;;;8.85;6.20;;;;;;;3.09;100.00;99943.75;5034247;28;20110;-85
2021/12/04 02:03:29;;;;;;;7.63;6.20;;;;;;;3.11;100.00;99943.72;5050844;28;20107;-86
2021/12/04 02:05:55;;;;;;;8.00;6.32;;;;;;;3.11;100.00;99941.13;5034022;28;20021;-86
2021/12/04 02:08:23;;;;;;;7.22;5.40;;;;;;;3.13;100.00;99937.59;5033988;28;20060;-85
2021/12/04 02:10:51;;;;;;;7.82;5.97;;;;;;;3.12;100.00;99933.28;5050298;28;20499;-86
2021/12/04 02:13:17;;;;;;;11.00;6.25;;;;;;;3.12;100.00;99924.56;5034111;28;20109;-86
2021/12/04 02:15:45;;;;;;;7.00;5.90;;;;;;;3.13;100.00;99918.44;5034075;28;20056;-86
2021/12/04 02:18:12;;;;;;;7.22;5.43;;;;;;;3.12;100.00;99903.63;5050688;28;20032;-86
2021/12/04 02:20:38;;;;;;;10.00;5.90;;;;;;;3.14;100.00;99894.91;5050527;28;20114;-86
2021/12/04 02:23:06;;;;;;;7.57;6.30;;;;;;;3.12;100.00;99888.81;5051973;28;20037;-86
2021/12/04 02:25:33;;;;;;;8.10;5.75;;;;;;;3.16;100.00;99884.41;5051904;28;20136;-86
2021/12/04 02:28:01;;;;;;;12.15;6.00;;;;;;;3.15;100.00;99886.16;5050321;28;20071;-86
2021/12/04 02:30:29;;;;;;;9.13;6.00;;;;;;;3.16;100.00;99877.41;5034094;28;20029;-86
2021/12/04 02:32:56;;;;;;;8.10;6.10;;;;;;;3.15;100.00;99880.91;5052198;28;20037;-86
2021/12/04 02:35:25;;;;;;;8.18;6.32;;;;;;;3.19;100.00;99885.25;5033847;28;20053;-86
2021/12/04 02:37:51;;;;;;;8.68;6.10;;;;;;;3.19;100.00;99874.81;5050671;28;20379;-86
2021/12/04 02:40:20;;;;;;;8.40;6.22;;;;;;;3.20;100.00;99879.13;5050185;28;20472;-86
2021/12/04 02:42:46;;;;;;;8.15;5.32;;;;;;;3.20;100.00;99866.06;5050294;28;20048;-86
2021/12/04 02:45:12;;;;;;;10.23;6.47;;;;;;;3.18;100.00;99864.34;5050027;28;20407;-86
2021/12/04 02:47:39;;;;;;;11.32;6.85;;;;;;;3.19;100.00;99866.94;5033506;28;20033;-86
2021/12/04 02:50:10;;;;;;;7.78;6.18;;;;;;;3.21;100.00;99859.06;5033546;28;20041;-86
2021/12/04 02:52:36;;;;;;;8.05;6.95;;;;;;;3.14;100.00;99845.19;5050057;28;20066;-86
2021/12/04 02:55:04;;;;;;;8.70;6.78;;;;;;;3.27;100.00;99863.41;5051349;28;20044;-86
2021/12/04 02:57:30;;;;;;;10.13;7.00;;;;;;;3.25;100.00;99866.03;5033592;28;20064;-86
2021/12/04 02:59:56;;;;;;;9.65;6.68;;;;;;;3.25;100.00;99865.16;5049822;28;20446;-86
2021/12/04 03:02:23;;;;;;;12.07;6.40;;;;;;;3.23;100.00;99863.41;5050962;28;20041;-86
2021/12/04 03:04:55;;;;;;;10.45;7.10;;;;;;;3.23;100.00;99852.09;5033428;28;20055;-86
2021/12/04 03:07:22;;;;;;;10.85;7.43;;;;;;;3.27;100.00;99855.56;5049486;28;20033;-86
2021/12/04 03:09:48;;;;;;;9.05;7.00;;;;;;;3.21;100.00;99846.88;5049747;28;20032;-86
2021/12/04 03:12:18;;;;;;;10.40;7.55;;;;;;;3.27;100.00;99848.56;5049435;28;20045;-86
2021/12/04 03:14:44;;;;;;;13.48;7.40;;;;;;;3.29;100.00;99848.53;5049597;28;20060;-86
2021/12/04 03:17:09;;;;;;;10.27;7.20;;;;;;;3.28;100.00;99842.44;5049563;28;20025;-86
2021/12/04 03:19:37;;;;;;;12.25;8.18;;;;;;;3.29;100.00;99843.31;5032846;28;20029;-87
2021/12/04 03:22:02;;;;;;;10.55;8.10;;;;;;;3.28;100.00;99839.81;5050805;28;20063;-86
2021/12/04 03:24:30;;;;;;;11.40;6.63;;;;;;;3.24;100.00;99830.28;5033170;28;20080;-86
2021/12/04 03:26:56;;;;;;;13.75;8.50;;;;;;;3.26;100.00;99832.88;5049335;28;20065;-86
2021/12/04 03:29:25;;;;;;;15.63;9.65;;;;;;;3.30;100.00;99832.84;5032764;28;20119;-86
2021/12/04 03:42:50;;;;;;;14.68;9.48;;;;;;;3.26;100.00;99822.41;5048889;28;20119;-87
2021/12/04 03:45:16;;;;;;;14.95;10.40;;;;;;;3.25;100.00;99812.84;5049020;28;20464;-86
2021/12/04 03:47:46;;;;;;;14.30;10.20;;;;;;;3.25;100.00;99815.44;5049148;28;20100;-86
2021/12/04 03:50:12;;;;;;;15.07;9.23;;;;;;;3.24;100.00;99817.22;5048807;28;20460;-86
2021/12/04 03:52:38;;;;;;;13.13;7.75;;;;;;;3.29;100.00;99811.91;5050450;28;20068;-86
2021/12/04 03:55:06;;;;;;;10.07;8.45;;;;;;;3.29;100.00;99804.94;5032202;28;20037;-86
2021/12/04 03:57:32;;;;;;;12.32;8.18;;;;;;;3.26;100.00;99794.50;5032254;28;20043;-86
2021/12/04 04:00:01;;;;;;;11.82;9.02;;;;;;;3.26;100.00;99793.63;5049060;28;20029;-86
2021/12/04 04:02:27;;;;;;;13.60;8.35;;;;;;;3.22;99.85;99798.03;5033014;28;20380;-86
2021/12/04 04:04:53;;;;;;;13.10;9.38;;;;;;;3.26;100.00;99807.56;5049968;28;20086;-87
2021/12/04 04:07:19;;;;;;;13.50;8.50;;;;;;;3.25;100.00;99812.84;5048572;28;20114;-86
2021/12/04 04:09:44;;;;;;;12.80;8.13;;;;;;;3.27;100.00;99808.47;5050048;28;20028;-86
2021/12/04 04:12:10;;;;;;;10.70;8.13;;;;;;;3.25;100.00;99803.22;5048396;28;20037;-86
2021/12/04 04:14:35;;;;;;;9.63;8.60;;;;;;;3.25;100.00;99791.91;5051875;28;20041;-86
2021/12/04 04:17:01;;;;;;;11.68;8.63;;;;;;;3.26;100.00;99791.00;5019520;28;20028;-86
2021/12/04 04:19:27;;;;;;;13.57;8.70;;;;;;;3.25;100.00;99778.81;5035881;28;20060;-87
2021/12/04 04:21:56;;;;;;;12.43;8.30;;;;;;;3.20;100.00;99777.09;5052084;28;20032;-86
2021/12/04 04:24:23;;;;;;;8.43;7.13;;;;;;;3.25;100.00;99781.44;5036094;28;20037;-86
2021/12/04 04:26:49;;;;;;;11.43;7.70;;;;;;;3.24;99.90;99780.56;5052348;28;20045;-86
2021/12/04 04:29:15;;;;;;;10.10;8.40;;;;;;;3.24;100.00;99777.97;5035540;28;20040;-86
2021/12/04 04:31:48;;;;;;;9.85;7.80;;;;;;;3.26;100.00;99784.03;5053872;28;20028;-86
2021/12/04 04:34:26;;;;;;;11.35;8.45;;;;;;;3.22;99.96;99780.56;5052110;28;20094;-87
2021/12/04 05:01:21;;;;;;;9.65;7.95;;;;;;;3.22;100.00;99777.97;5031819;28;20083;-86
2021/12/04 05:14:56;;;;;;;6.63;5.55;;;;;;;3.23;99.78;99755.28;5031910;28;20034;-87
2021/12/04 05:17:30;;;;;;;8.38;6.28;;;;;;;3.19;99.38;99751.84;5016664;28;20030;-86
2021/12/04 05:19:55;;;;;;;6.45;5.72;;;;;;;3.19;99.69;99749.22;5031493;28;20041;-87
2021/12/04 05:22:22;;;;;;;6.60;5.40;;;;;;;3.21;99.72;99742.22;5032877;28;20032;-86
2021/12/04 05:24:48;;;;;;;6.00;5.40;;;;;;;3.21;99.95;99742.22;5032257;28;20065;-86
2021/12/04 05:27:15;;;;;;;6.47;5.50;;;;;;;3.21;99.64;99744.84;5031845;28;20073;-86
2021/12/04 05:29:41;;;;;;;8.60;5.47;;;;;;;3.24;100.00;99751.78;5032974;28;20036;-87
2021/12/04 05:32:07;;;;;;;6.03;5.32;;;;;;;3.24;100.00;99746.56;5031226;28;20033;-86
2021/12/04 05:34:34;;;;;;;5.18;4.47;;;;;;;3.18;99.56;99731.78;5032894;28;20042;-87
2021/12/04 05:37:00;;;;;;;5.45;4.50;;;;;;;3.20;99.92;99730.00;5047818;28;20151;-87
2021/12/04 05:39:26;;;;;;;5.63;4.90;;;;;;;3.22;100.00;99745.69;5032772;28;20436;-86
2021/12/04 05:41:52;;;;;;;4.88;4.38;;;;;;;3.15;99.94;99739.66;5032907;28;20116;-86
2021/12/04 05:44:21;;;;;;;7.68;4.80;;;;;;;3.18;99.75;99742.22;5047842;28;20520;-87
2021/12/04 05:46:54;;;;;;;4.88;4.18;;;;;;;3.22;100.00;99748.31;5057926;28;20034;-86
2021/12/04 05:57:05;;;;;;;6.82;4.53;;;;;;;3.31;99.61;99755.19;5031257;28;20279;-86
2021/12/04 05:59:31;;;;;;;6.50;4.25;;;;;;;3.23;99.54;99731.72;5032561;28;20037;-86
2021/12/04 06:01:56;;;;;;;4.22;3.78;;;;;;;3.31;99.69;99739.50;5064147;28;20030;-86
2021/12/04 06:04:22;;;;;;;4.93;3.80;;;;;;;3.29;99.35;99729.06;5047985;28;20037;-86
2021/12/04 06:06:48;;;;;;;6.53;4.45;;;;;;;3.30;99.36;99729.94;5030988;28;20115;-86
2021/12/04 06:09:13;;;;;;;4.60;4.10;;;;;;;3.30;99.68;99733.41;5031222;28;20040;-87
2021/12/04 06:11:39;;;;;;;5.63;4.15;;;;;;;3.32;99.99;99730.78;5050475;28;20029;-86
2021/12/04 06:14:04;;;;;;;5.00;3.90;;;;;;;3.33;99.80;99732.50;5050695;28;20036;-86
2021/12/04 06:16:31;;;;;;;5.72;3.88;;;;;;;3.31;99.30;99719.44;5050626;28;20020;-86
2021/12/04 06:18:58;;;;;;;5.45;3.85;;;;;;;3.33;99.15;99724.66;5017646;28;20060;-86
2021/12/04 06:24:08;;;;;;;5.75;4.22;;;;;;;3.31;99.37;99718.56;5050488;28;20073;-86
2021/12/04 06:26:35;;;;;;;6.90;3.88;;;;;;;3.29;99.35;99722.94;5050378;28;20488;-87
2021/12/04 06:29:01;;;;;;;5.72;3.78;;;;;;;3.30;99.71;99722.06;5033956;28;20083;-86
2021/12/04 06:31:27;;;;;;;4.50;3.63;;;;;;;3.29;99.56;99715.09;5050602;28;20064;-86
2021/12/04 06:33:53;;;;;;;4.38;3.78;;;;;;;3.31;99.47;99726.41;5050362;28;20044;-86
2021/12/04 06:36:21;;;;;;;4.93;3.70;;;;;;;3.30;99.81;99730.78;5051240;28;20059;-86
2021/12/04 06:38:46;;;;;;;4.50;3.53;;;;;;;3.30;99.46;99729.94;5050230;28;20052;-87
2021/12/04 06:41:12;;;;;;;4.47;3.15;;;;;;;3.26;99.24;99729.06;5050116;28;20072;-87
2021/12/04 06:43:41;;;;;;;5.90;3.85;;;;;;;3.30;99.26;99729.94;5017277;28;20044;-87
2021/12/04 06:46:08;;;;;;;4.70;3.53;;;;;;;3.33;99.36;99742.97;5033739;28;20025;-87
2021/12/04 06:48:41;;;;;;;4.50;3.70;;;;;;;3.26;99.57;99721.22;5050105;28;20067;-87
2021/12/04 06:51:21;;;;;;;4.65;3.75;;;;;;;3.30;99.73;99725.56;5033351;28;20032;-87
2021/12/04 06:56:12;;;;;;;4.22;3.55;;;;;;;3.33;99.74;99735.97;5050017;28;20064;-87
2021/12/04 06:58:39;;;;;;;6.35;4.30;;;;;;;3.32;99.45;99729.03;5016966;28;20082;-86
2021/12/04 07:01:07;;;;;;;5.80;4.13;;;;;;;3.35;99.96;99731.59;5033373;28;20043;-86
2021/12/04 07:03:33;;;;;;;5.50;3.97;;;;;;;3.32;99.41;99720.31;5033475;28;20029;-87
2021/12/04 07:05:58;;;;;;;4.78;3.83;;;;;;;3.33;99.33;99727.28;5049681;28;20051;-86
2021/12/04 07:08:24;;;;;;;5.80;4.15;;;;;;;3.33;99.28;99725.50;5049502;28;20107;-87
2021/12/04 07:10:50;;;;;;;6.70;4.03;;;;;;;3.37;99.28;99734.22;5049612;28;20442;-86
2021/12/04 07:13:15;;;;;;;7.07;4.38;;;;;;;3.39;99.79;99735.06;5049275;28;20036;-86
2021/12/04 07:15:44;;;;;;;5.50;4.15;;;;;;;3.39;99.81;99728.09;5032866;28;20041;-86
2021/12/04 07:18:09;;;;;;;6.03;4.43;;;;;;;3.37;99.32;99723.75;5050912;28;20029;-86
2021/12/04 07:20:35;;;;;;;7.72;4.43;;;;;;;3.37;99.50;99721.13;5049213;28;20036;-86
2021/12/04 07:23:01;;;;;;;7.82;4.93;;;;;;;3.38;99.68;99721.09;5049365;28;20041;-87
2021/12/04 07:25:27;;;;;;;6.18;4.07;;;;;;;3.37;99.30;99723.75;5049000;28;20152;-87
2021/12/04 07:27:53;;;;;;;9.05;5.22;;;;;;;3.35;99.61;99715.91;5048889;28;20036;-87
2021/12/04 07:30:20;;;;;;;7.03;5.18;;;;;;;3.35;99.85;99712.44;5049090;28;20484;-86
2021/12/04 07:32:46;;;;;;;6.88;5.30;;;;;;;3.38;99.29;99728.09;5049068;28;20029;-86
2021/12/04 07:35:13;;;;;;;8.25;5.57;;;;;;;3.35;99.48;99721.13;5032478;28;20459;-86
2021/12/04 07:37:38;;;;;;;10.45;5.13;;;;;;;3.36;99.61;99724.63;5049024;28;20036;-87
2021/12/04 07:40:05;;;;;;;6.35;4.65;;;;;;;3.34;99.30;99718.53;5032683;28;20471;-86
2021/12/04 07:42:31;;;;;;;8.30;5.25;;;;;;;3.38;99.49;99722.84;5049262;28;20036;-87
2021/12/04 07:44:58;;;;;;;6.88;5.03;;;;;;;3.41;99.38;99730.66;5050575;28;20036;-86
2021/12/04 07:47:25;;;;;;;9.48;5.78;;;;;;;3.40;99.42;99719.34;5032672;28;20124;-87
2021/12/04 07:49:50;;;;;;;7.40;5.78;;;;;;;3.40;99.86;99721.09;5054727;28;20029;-86
2021/12/04 07:52:16;;;;;;;8.50;6.25;;;;;;;3.43;100.00;99716.69;5020568;28;20413;-87
2021/12/04 07:54:42;;;;;;;8.57;6.10;;;;;;;3.45;99.84;99714.06;5053831;28;20041;-87
2021/12/04 07:57:08;;;;;;;9.05;5.78;;;;;;;3.43;99.68;99706.22;5053742;28;20029;-86
2021/12/04 07:59:33;;;;;;;9.27;6.80;;;;;;;3.47;99.59;99708.81;5036991;28;20048;-86
2021/12/04 08:01:59;;;;;;;9.90;6.43;;;;;;;3.47;99.88;99714.06;5055038;28;20116;-86
2021/12/04 08:04:26;;;;;;;8.55;6.43;;;;;;;3.48;99.47;99706.16;5036307;28;20032;-85
2021/12/04 08:06:53;;;;;;;9.82;6.43;;;;;;;3.49;100.00;99707.91;5053043;28;20128;-86
2021/12/04 08:09:18;;;;;;;8.80;5.65;;;;;;;3.51;99.63;99708.78;5052399;28;20094;-86
2021/12/04 08:11:44;;;;;;;9.48;6.95;;;;;;;3.51;99.79;99702.66;5052903;28;20041;-86
2021/12/04 08:14:10;;;;;;;9.40;6.13;;;;;;;3.49;99.57;99707.91;5036109;28;20439;-86
2021/12/04 08:16:35;;;;;;;11.80;6.63;;;;;;;3.51;99.88;99703.53;5036521;28;20072;-86
2021/12/04 08:19:01;;;;;;;12.68;6.43;;;;;;;3.53;100.00;99693.03;5037037;28;20159;-86
2021/12/04 08:21:27;;;;;;;8.98;5.90;;;;;;;3.56;100.00;99690.38;5036839;28;20037;-86
2021/12/04 08:23:52;;;;;;;10.70;7.10;;;;;;;3.57;99.96;99684.28;5053322;28;20202;-86
2021/12/04 08:26:19;;;;;;;11.15;6.32;;;;;;;3.58;99.81;99680.75;5054766;28;20495;-87
2021/12/04 08:28:45;;;;;;;9.98;6.75;;;;;;;3.60;99.90;99673.75;5053091;28;20084;-86
2021/12/04 08:31:10;;;;;;;9.38;6.15;;;;;;;3.55;99.60;99652.88;5036638;28;20120;-86
2021/12/04 08:33:36;;;;;;;8.48;6.43;;;;;;;3.59;99.86;99662.41;5053033;28;20532;-87
2021/12/04 08:36:03;;;;;;;10.65;5.63;;;;;;;3.61;99.58;99660.66;5053135;28;20033;-86
2021/12/04 08:38:31;;;;;;;10.38;5.55;;;;;;;3.60;99.61;99658.91;5053018;28;20052;-91
2021/12/04 08:40:57;;;;;;;8.48;5.80;;;;;;;3.61;99.68;99658.03;5035536;28;20211;-91
2021/12/04 08:43:22;;;;;;;8.45;5.93;;;;;;;3.64;99.87;99652.75;5052784;28;20037;-91
2021/12/04 08:45:48;;;;;;;7.32;5.88;;;;;;;3.63;99.70;99640.53;5053648;28;20048;-91
2021/12/04 08:48:13;;;;;;;8.23;5.97;;;;;;;3.66;99.99;99637.91;5052379;28;20059;-91
2021/12/04 08:50:40;;;;;;;9.23;6.18;;;;;;;3.65;99.97;99632.66;5035715;28;20353;-91
2021/12/04 08:53:07;;;;;;;7.65;6.07;;;;;;;3.67;99.94;99644.84;5052248;28;20494;-90
2021/12/04 08:55:35;;;;;;;8.02;5.90;;;;;;;3.65;99.46;99627.44;5052306;28;20408;-91
2021/12/04 08:58:02;;;;;;;9.50;6.07;;;;;;;3.69;99.85;99639.59;5035179;28;20473;-91
2021/12/04 09:00:34;;;;;;;8.85;5.78;;;;;;;3.68;100.00;99643.09;5051668;28;20058;-91
2021/12/04 09:03:01;;;;;;;9.52;5.88;;;;;;;3.66;99.70;99637.03;5052200;28;20510;-91
2021/12/04 09:05:28;;;;;;;7.80;5.65;;;;;;;3.68;99.38;99643.09;5035237;28;20032;-91
2021/12/04 09:07:53;;;;;;;7.47;6.05;;;;;;;3.72;99.59;99654.41;5051928;28;20524;-91
2021/12/04 09:10:20;;;;;;;8.98;6.28;;;;;;;3.75;99.85;99655.22;5051747;28;20190;-90
2021/12/04 09:12:48;;;;;;;7.97;6.55;;;;;;;3.76;99.88;99656.97;5052050;28;20357;-90
2021/12/04 09:15:17;;;;;;;9.55;6.30;;;;;;;3.76;99.81;99643.00;5035117;28;20039;-91
2021/12/04 09:17:43;;;;;;;7.70;6.45;;;;;;;3.75;100.00;99638.66;5052206;28;20171;-90
2021/12/04 09:20:11;;;;;;;8.60;6.53;;;;;;;3.75;99.78;99643.88;5035942;28;20135;-91
2021/12/04 09:22:37;;;;;;;9.75;7.07;;;;;;;3.72;99.83;99638.69;5052231;28;20031;-91
2021/12/04 09:25:12;;;;;;;10.55;6.40;;;;;;;3.78;99.90;99639.47;5052285;28;20032;-90
2021/12/04 10:32:26;;;;;;;10.10;5.80;;;;;;;4.05;98.87;99564.84;5035166;28;20052;-91
2021/12/04 10:34:58;;;;;;;14.27;6.43;;;;;;;4.07;98.85;99564.84;5039860;28;20040;-91
2021/12/04 10:37:26;;;;;;;11.50;5.82;;;;;;;3.99;98.60;99551.00;5049302;28;20044;-91
2021/12/04 10:39:54;;;;;;;9.95;5.80;;;;;;;4.05;98.61;99561.38;5052939;28;20109;-90
2021/12/04 10:42:23;;;;;;;8.57;5.03;;;;;;;4.07;98.90;99557.00;5051095;28;20094;-92
2021/12/04 10:44:52;;;;;;;8.07;5.28;;;;;;;4.01;98.70;99544.00;5050968;28;20033;-91
2021/12/04 10:47:23;;;;;;;7.07;5.28;;;;;;;4.07;98.46;99549.13;5050839;28;20124;-91
2021/12/04 10:55:25;;;;;;;10.98;4.80;;;;;;;4.05;98.48;99533.44;5067422;28;20033;-91
2021/12/04 11:01:51;;;;;;;10.07;5.78;;;;;;;4.05;98.35;99516.84;5067374;28;20048;-90
2021/12/04 11:04:10;;;;;;;10.25;5.00;;;;;;;4.11;98.35;99516.75;5042542;28;20052;-92
2021/12/04 11:06:49;;;;;;;6.78;5.03;;;;;;;4.11;98.63;99505.44;5050256;28;20051;-91
2021/12/04 11:26:20;;;;;;;11.75;7.03;;;;;;;4.25;98.63;99483.34;5051556;28;20040;-90
2021/12/04 11:37:03;;;;;;;11.13;6.90;;;;;;;4.37;99.19;99470.88;5051427;28;20453;-92
2021/12/04 11:44:55;;;;;;;11.52;7.40;;;;;;;4.42;98.80;99471.66;5050544;28;20353;-90
2021/12/04 11:47:21;;;;;;;10.18;6.22;;;;;;;4.46;98.50;99474.19;5051914;28;20132;-91
2021/12/04 11:49:47;;;;;;;11.95;7.35;;;;;;;4.41;98.29;99462.09;5049949;28;20122;-91
2021/12/04 11:52:20;;;;;;;14.73;7.97;;;;;;;4.40;97.96;99457.72;5050087;28;20033;-91
2021/12/04 11:54:57;;;;;;;12.05;7.85;;;;;;;4.41;98.23;99460.31;5050351;28;20115;-90
2021/12/04 11:57:34;;;;;;;11.40;7.82;;;;;;;4.48;98.75;99458.44;5033491;28;20079;-91
2021/12/04 12:00:26;;;;;;;13.48;7.97;;;;;;;4.54;98.85;99458.31;5047677;28;20032;-90
2021/12/04 12:03:09;;;;;;;13.13;7.38;;;;;;;4.55;99.07;99449.56;5030108;28;20374;-91
2021/12/04 12:05:50;;;;;;;10.13;6.82;;;;;;;4.60;98.58;99446.84;5030067;28;20469;-91
2021/12/04 12:08:37;;;;;;;11.23;7.53;;;;;;;4.63;98.42;99438.94;5030021;28;20041;-91
2021/12/04 12:11:11;;;;;;;12.20;7.13;;;;;;;4.65;98.46;99432.75;5013905;28;20037;-92
2021/12/04 12:13:38;;;;;;;10.90;7.22;;;;;;;4.63;98.29;99424.06;5033534;28;20025;-90
2021/12/04 12:16:07;;;;;;;10.32;8.18;;;;;;;4.64;98.19;99427.53;5030830;28;20052;-91
2021/12/04 12:18:59;;;;;;;10.93;7.15;;;;;;;4.61;98.51;99412.72;5013427;28;20053;-91
2021/12/04 12:21:40;;;;;;;8.38;6.03;;;;;;;4.66;98.17;99423.13;5032930;28;20437;-91
2021/12/04 12:38:54;;;;;;;12.52;7.05;;;;;;;4.74;98.06;99427.31;5070104;28;20082;-92
2021/12/04 12:41:34;;;;;;;13.63;7.82;;;;;;;4.70;98.04;99425.66;5009920;28;20051;-91
2021/12/04 12:44:25;;;;;;;13.55;8.40;;;;;;;4.70;97.63;99425.66;5017057;28;20151;-91
2021/12/04 12:47:04;;;;;;;13.38;8.77;;;;;;;4.64;97.95;99420.53;5034873;28;20511;-91
2021/12/04 12:49:41;;;;;;;12.52;10.13;;;;;;;4.63;97.61;99424.06;5036842;28;20447;-92
2021/12/04 12:52:20;;;;;;;36.42;31.65;;;;;;;4.63;97.94;99436.31;5036551;28;20490;-89
2021/12/04 12:54:51;;;;;;;30.33;25.50;;;;;;;4.62;97.83;99447.69;5036560;28;20082;-88
2021/12/04 12:57:23;;;;;;;18.13;16.05;;;;;;;4.61;98.33;99432.84;5036957;28;20044;-88
2021/12/04 13:11:51;;;;;;;21.77;13.77;;;;;;;4.55;99.24;99412.88;5052202;28;20037;-88
2021/12/04 13:14:22;;;;;;;22.58;14.75;;;;;;;4.48;99.86;99403.41;5036087;28;20495;-87
2021/12/04 13:16:55;;;;;;;22.52;15.57;;;;;;;4.55;99.68;99409.38;5040556;28;20465;-86
2021/12/04 13:19:23;;;;;;;19.33;13.55;;;;;;;4.58;100.00;99410.19;5033102;28;20034;-86
2021/12/04 13:21:52;;;;;;;21.38;14.60;;;;;;;4.56;99.93;99416.34;5031598;28;20033;-86
2021/12/04 13:24:21;;;;;;;26.65;17.67;;;;;;;4.55;100.00;99415.50;5031348;28;20038;-86
2021/12/04 13:26:50;;;;;;;21.60;15.57;;;;;;;4.58;100.00;99417.19;5013454;28;20049;-86
2021/12/04 13:29:20;;;;;;;20.20;15.65;;;;;;;4.56;100.00;99405.88;5030870;28;20445;-85
2021/12/04 13:31:47;;;;;;;22.73;16.30;;;;;;;4.58;100.00;99404.94;5015159;28;20057;-84
2021/12/04 13:34:21;;;;;;;22.90;17.20;;;;;;;4.58;100.00;99406.69;5032736;28;20018;-84
2021/12/04 13:36:46;;;;;;;22.10;15.63;;;;;;;4.61;99.99;99401.38;5015628;28;20054;-84
2021/12/04 13:39:14;;;;;;;21.80;15.95;;;;;;;4.56;100.00;99401.47;5046503;28;20354;-83
2021/12/04 13:41:42;;;;;;;19.88;14.32;;;;;;;4.56;100.00;99398.84;5031596;28;20372;-85
2021/12/04 13:44:11;;;;;;;21.35;15.80;;;;;;;4.56;100.00;99401.47;5031088;28;20132;-85
2021/12/04 13:46:41;;;;;;;20.65;14.90;;;;;;;4.56;100.00;99401.47;5046002;28;20115;-84
2021/12/04 13:49:08;;;;;;;22.33;15.50;;;;;;;4.58;100.00;99398.84;5032291;28;20041;-85
2021/12/04 13:51:33;;;;;;;21.05;14.70;;;;;;;4.60;100.00;99411.03;5031642;28;20026;-83
2021/12/04 13:54:01;;;;;;;18.77;13.88;;;;;;;4.58;100.00;99406.69;5031147;28;20033;-85
2021/12/04 13:56:28;;;;;;;19.75;13.27;;;;;;;4.57;100.00;99397.09;5014625;28;20045;-85
2021/12/04 13:59:00;;;;;;;13.15;10.48;;;;;;;4.60;100.00;99402.25;5014006;28;20049;-86
2021/12/04 14:01:41;;;;;;;17.65;12.75;;;;;;;4.57;100.00;99407.56;5030815;28;20084;-84
2021/12/04 14:04:11;;;;;;;17.40;13.18;;;;;;;4.59;100.00;99406.66;5030601;28;20060;-84
2021/12/04 14:06:36;;;;;;;17.42;12.52;;;;;;;4.60;100.00;99408.41;5040113;28;20091;-84
2021/12/04 14:09:07;;;;;;;16.15;11.95;;;;;;;4.60;100.00;99399.66;5052284;28;20052;-82
2021/12/04 14:11:39;;;;;;;18.08;13.25;;;;;;;4.60;100.00;99407.50;5046320;28;20041;-85
2021/12/04 14:14:26;;;;;;;16.70;11.82;;;;;;;4.62;100.00;99406.59;5046629;28;20059;-88
2021/12/04 14:16:56;;;;;;;14.63;12.35;;;;;;;4.61;100.00;99401.38;5033354;28;20115;-85
2021/12/04 14:19:25;;;;;;;16.98;12.25;;;;;;;4.62;100.00;99406.59;5014977;28;20136;-88
2021/12/04 14:22:04;;;;;;;17.92;13.02;;;;;;;4.56;100.00;99388.38;5025191;28;20106;-88
2021/12/04 14:24:33;;;;;;;20.08;13.88;;;;;;;4.59;100.00;99396.16;5031625;28;20076;-85
2021/12/04 14:27:01;;;;;;;16.30;12.23;;;;;;;4.66;100.00;99405.63;5031322;28;20064;-87
2021/12/04 14:29:31;;;;;;;16.98;12.77;;;;;;;4.62;100.00;99403.09;5052005;28;20033;-88
2021/12/04 14:31:57;;;;;;;15.45;12.65;;;;;;;4.63;100.00;99410.94;5032397;28;20052;-86
2021/12/04 14:34:25;;;;;;;29.67;23.70;;;;;;;4.68;100.00;99408.25;5032028;28;20596;-85
2021/12/04 14:36:59;;;;;;;17.17;12.15;;;;;;;4.68;100.00;99421.34;5038783;28;20029;-83
2021/12/04 14:39:25;;;;;;;16.25;10.60;;;;;;;4.62;100.00;99418.84;5066599;28;20041;-86
2021/12/04 14:41:51;;;;;;;15.73;11.20;;;;;;;4.66;100.00;99433.63;5049931;28;20013;-86
2021/12/04 14:44:16;;;;;;;15.45;11.25;;;;;;;4.65;100.00;99438.00;5029258;28;20113;-86
2021/12/04 14:46:42;;;;;;;18.77;11.48;;;;;;;4.62;99.94;99445.91;5013077;28;20412;-84
2021/12/04 14:49:10;;;;;;;14.82;10.18;;;;;;;4.62;100.00;99453.78;5019521;28;20109;-88
2021/12/04 14:51:36;;;;;;;14.85;9.18;;;;;;;4.60;100.00;99452.97;5024013;28;20096;-89
2021/12/04 14:54:02;;;;;;;12.55;8.48;;;;;;;4.55;99.79;99452.19;5037815;28;20029;-86
2021/12/04 14:56:31;;;;;;;19.83;10.48;;;;;;;4.53;99.12;99457.47;5054861;28;20053;-85